createdAt,value
2022-10-14T00:02:23.399Z,72.45
2022-10-14T00:04:50.311Z,75.18
2022-10-14T00:07:16.996Z,76.72
2022-10-14T00:09:43.679Z,73.45
2022-10-14T00:12:10.326Z,77.63
2022-10-14T00:14:37.061Z,77.10
2022-10-14T00:17:03.813Z,69.55
2022-10-14T00:19:30.532Z,82.53
2022-10-14T00:21:57.212Z,72.07
2022-10-14T00:24:23.997Z,74.85
2022-10-14T00:26:50.662Z,67.57
2022-10-14T00:29:19.206Z,72.55
2022-10-14T00:31:46.688Z,81.18
2022-10-14T00:34:16.021Z,72.30
2022-10-14T00:36:43.631Z,71.88
2022-10-14T00:39:11.118Z,68.93
2022-10-14T00:41:38.689Z,74.32
2022-10-14T00:44:27.488Z,79.07
2022-10-14T00:46:55.674Z,72.60
2022-10-14T00:49:29.750Z,74.03
2022-10-14T00:52:06.232Z,75.28
2022-10-14T00:54:40.305Z,73.07
2022-10-14T00:57:08.895Z,76.18
2022-10-14T00:59:36.065Z,73.28
2022-10-14T01:02:03.309Z,80.50
2022-10-14T01:04:30.641Z,75.32
2022-10-14T01:07:15.494Z,75.30
2022-10-14T01:09:59.661Z,81.75
2022-10-14T01:12:33.103Z,70.95
2022-10-14T01:15:25.352Z,76.78
2022-10-14T01:18:17.794Z,70.50
2022-10-14T01:21:03.325Z,73.65
2022-10-14T01:23:45.143Z,78.05
2022-10-14T01:26:24.842Z,72.40
2022-10-14T01:29:16.793Z,73.25
2022-10-14T01:31:48.667Z,76.32
2022-10-14T01:34:23.261Z,77.95
2022-10-14T01:37:02.843Z,69.15
2022-10-14T01:39:39.526Z,66.35
2022-10-14T01:42:18.191Z,69.55
2022-10-14T01:44:50.875Z,69.60
2022-10-14T01:47:21.529Z,72.30
2022-10-14T01:50:18.975Z,70.38
2022-10-14T01:53:09.267Z,71.30
2022-10-14T01:55:40.143Z,72.47
2022-10-14T01:58:08.386Z,71.85
2022-10-14T02:00:35.076Z,73.07
2022-10-14T02:03:02.039Z,72.70
2022-10-14T02:05:57.372Z,67.38
2022-10-14T02:09:00.834Z,70.65
2022-10-14T02:11:50.005Z,70.95
2022-10-14T02:14:22.752Z,74.38
2022-10-14T02:17:09.796Z,68.97
2022-10-14T02:19:49.181Z,65.38
2022-10-14T02:22:39.371Z,70.50
2022-10-14T02:25:15.542Z,70.63
2022-10-14T02:27:44.828Z,74.25
2022-10-14T02:30:12.206Z,68.40
2022-10-14T02:32:40.725Z,70.75
2022-10-14T02:35:10.441Z,68.75
2022-10-14T02:37:39.220Z,68.70
2022-10-14T02:40:11.183Z,72.50
2022-10-14T02:42:37.837Z,70.28
2022-10-14T02:45:05.621Z,66.57
2022-10-14T02:47:32.300Z,66.63
2022-10-14T02:49:58.991Z,68.55
2022-10-14T02:52:25.772Z,71.45
2022-10-14T02:54:52.490Z,68.10
2022-10-14T02:57:19.133Z,71.47
2022-10-14T02:59:45.816Z,76.05
2022-10-14T03:02:12.810Z,66.80
2022-10-14T03:04:39.510Z,69.22
2022-10-14T03:07:06.208Z,72.03
2022-10-14T03:09:32.904Z,70.03
2022-10-14T03:11:59.652Z,69.72
2022-10-14T03:14:26.398Z,70.32
2022-10-14T03:16:53.599Z,72.85
2022-10-14T03:19:20.293Z,66.75
2022-10-14T03:21:49.013Z,66.57
2022-10-14T03:24:15.813Z,71.65
2022-10-14T03:26:42.503Z,68.00
2022-10-14T03:29:09.380Z,74.07
2022-10-14T03:31:36.156Z,66.60
2022-10-14T03:34:03.608Z,62.78
2022-10-14T03:36:30.296Z,73.65
2022-10-14T03:38:57.076Z,72.03
2022-10-14T03:41:23.844Z,70.50
2022-10-14T03:43:50.477Z,73.18
2022-10-14T03:46:17.227Z,71.88
2022-10-14T03:48:43.885Z,65.65
2022-10-14T03:51:10.680Z,70.97
2022-10-14T03:53:37.410Z,68.80
2022-10-14T03:56:04.368Z,69.75
2022-10-14T03:58:31.039Z,69.68
2022-10-14T04:00:58.132Z,72.78
2022-10-14T04:03:24.834Z,68.70
2022-10-14T04:05:51.495Z,67.18
2022-10-14T04:08:18.288Z,71.82
2022-10-14T04:10:44.986Z,72.85
2022-10-14T04:13:11.872Z,69.18
2022-10-14T04:15:38.812Z,69.70
2022-10-14T04:18:05.551Z,68.25
2022-10-14T04:20:32.312Z,75.13
2022-10-14T04:23:01.913Z,77.40
2022-10-14T04:25:28.588Z,70.78
2022-10-14T04:27:55.244Z,71.60
2022-10-14T04:30:22.073Z,71.28
2022-10-14T04:32:48.722Z,71.85
2022-10-14T04:35:15.397Z,68.45
2022-10-14T04:37:42.241Z,64.93
2022-10-14T04:40:09.659Z,69.30
2022-10-14T04:42:36.309Z,67.90
2022-10-14T04:45:04.324Z,64.97
2022-10-14T04:47:31.036Z,65.53
2022-10-14T04:49:57.721Z,72.43
2022-10-14T04:52:24.709Z,69.60
2022-10-14T04:54:51.548Z,67.47
2022-10-14T04:57:18.273Z,71.40
2022-10-14T04:59:44.961Z,68.40
2022-10-14T05:02:11.795Z,73.22
2022-10-14T05:04:38.511Z,72.82
2022-10-14T05:07:05.360Z,68.93
2022-10-14T05:09:33.357Z,66.70
2022-10-14T05:12:00.029Z,66.68
2022-10-14T05:14:27.055Z,77.63
2022-10-14T05:16:53.833Z,76.55
2022-10-14T05:19:20.464Z,75.15
2022-10-14T05:21:47.200Z,83.15
2022-10-14T05:24:13.921Z,74.20
2022-10-14T05:26:40.739Z,74.38
2022-10-14T05:29:07.982Z,70.78
2022-10-14T05:31:34.698Z,77.15
2022-10-14T05:34:01.391Z,75.78
2022-10-14T05:36:28.066Z,74.32
2022-10-14T05:38:58.560Z,78.60
2022-10-14T05:41:25.929Z,76.03
2022-10-14T05:43:52.673Z,70.07
2022-10-14T05:46:19.651Z,80.75
2022-10-14T05:48:46.449Z,78.22
2022-10-14T05:51:13.249Z,80.80
2022-10-14T05:53:40.053Z,74.80
2022-10-14T05:56:08.904Z,73.65
2022-10-14T05:58:35.717Z,75.53
2022-10-14T06:01:03.913Z,74.60
2022-10-14T06:03:30.861Z,75.90
2022-10-14T06:05:57.801Z,74.18
2022-10-14T06:08:24.867Z,73.65
2022-10-14T06:10:52.327Z,69.47
2022-10-14T06:13:19.603Z,67.00
2022-10-14T06:15:46.528Z,70.68
2022-10-14T06:18:13.265Z,75.13
2022-10-14T06:20:40.067Z,74.70
2022-10-14T06:23:06.850Z,76.53
2022-10-14T06:25:33.522Z,64.88
2022-10-14T06:28:06.545Z,68.32
2022-10-14T06:30:33.404Z,71.35
2022-10-14T06:33:00.119Z,71.60
2022-10-14T06:35:27.194Z,73.55
2022-10-14T06:37:53.937Z,70.75
2022-10-14T06:40:21.692Z,68.28
2022-10-14T06:42:48.701Z,80.72
2022-10-14T06:45:15.529Z,78.32
2022-10-14T06:47:42.380Z,75.00
2022-10-14T06:50:09.171Z,70.18
2022-10-14T06:52:35.869Z,68.35
2022-10-14T06:55:02.657Z,79.43
2022-10-14T06:57:29.653Z,72.13
2022-10-14T06:59:56.389Z,69.63
2022-10-14T07:02:23.592Z,69.18
2022-10-14T07:04:50.789Z,68.80
2022-10-14T07:07:17.515Z,74.38
2022-10-14T07:09:44.224Z,80.40
2022-10-14T07:12:11.141Z,76.28
2022-10-14T07:14:37.795Z,82.38
2022-10-14T07:17:04.704Z,83.15
2022-10-14T07:19:31.667Z,91.82
2022-10-14T07:21:58.330Z,86.75
2022-10-14T07:24:25.528Z,90.95
2022-10-14T07:26:52.736Z,88.10
2022-10-14T07:29:19.529Z,91.35
2022-10-14T07:31:46.252Z,100.15
2022-10-14T07:34:13.014Z,94.75
2022-10-14T07:36:39.728Z,96.80
2022-10-14T07:39:06.591Z,93.53
2022-10-14T07:41:33.799Z,95.80
2022-10-14T07:44:05.709Z,103.97
2022-10-14T07:46:34.935Z,93.32
2022-10-14T07:49:27.468Z,98.22
2022-10-14T07:51:54.356Z,95.15
2022-10-14T07:54:25.170Z,100.45
2022-10-14T07:56:52.294Z,91.65
2022-10-14T07:59:20.720Z,99.20
2022-10-14T08:01:49.011Z,98.25
2022-10-14T08:04:16.232Z,90.68
2022-10-14T08:06:42.997Z,103.00
2022-10-14T08:09:11.744Z,102.03
2022-10-14T08:11:39.119Z,94.00
2022-10-14T08:14:07.176Z,102.75
2022-10-14T08:16:35.695Z,92.18
2022-10-14T08:19:11.016Z,100.93
2022-10-14T08:21:41.755Z,102.30
2022-10-14T08:24:08.866Z,100.80
2022-10-14T08:26:40.181Z,104.28
2022-10-14T08:29:10.502Z,107.03
2022-10-14T08:31:37.289Z,104.65
2022-10-14T08:34:04.101Z,101.97
2022-10-14T08:36:31.320Z,101.05
2022-10-14T08:38:58.237Z,108.55
2022-10-14T08:42:04.291Z,107.93
2022-10-14T08:44:44.396Z,104.78
2022-10-14T08:47:15.824Z,100.10
2022-10-14T08:50:03.449Z,103.75
2022-10-14T08:52:39.957Z,107.00
2022-10-14T08:55:43.920Z,106.30
2022-10-14T08:58:22.080Z,105.55
2022-10-14T09:00:51.948Z,107.78
2022-10-14T09:03:22.713Z,105.43
2022-10-14T09:06:07.427Z,99.38
2022-10-14T09:08:49.217Z,98.80
2022-10-14T09:11:19.609Z,105.50
2022-10-14T09:13:56.392Z,99.47
2022-10-14T09:16:25.924Z,106.55
2022-10-14T09:18:59.182Z,96.72
2022-10-14T09:21:52.327Z,96.93
2022-10-14T09:24:38.296Z,94.78
2022-10-14T09:27:16.175Z,111.17
2022-10-14T09:30:13.352Z,100.07
2022-10-14T09:32:48.918Z,102.78
2022-10-14T09:35:29.385Z,99.18
2022-10-14T09:37:56.324Z,106.63
2022-10-14T09:40:35.660Z,99.95
2022-10-14T09:43:08.419Z,103.72
2022-10-14T09:46:07.995Z,100.68
2022-10-14T09:48:44.733Z,100.35
2022-10-14T09:51:29.772Z,100.28
2022-10-14T09:54:02.280Z,116.37
2022-10-14T09:56:39.046Z,98.53
2022-10-14T09:59:20.438Z,94.05
2022-10-14T10:01:54.541Z,97.72
2022-10-14T10:04:40.649Z,105.25
2022-10-14T10:07:31.354Z,95.63
2022-10-14T10:10:00.977Z,95.10
2022-10-14T10:12:33.124Z,95.93
2022-10-14T10:15:03.847Z,108.25
2022-10-14T10:17:32.761Z,97.03
2022-10-14T10:20:17.865Z,87.80
2022-10-14T10:22:44.936Z,83.97
2022-10-14T10:25:19.571Z,96.03
2022-10-14T10:27:49.425Z,89.28
2022-10-14T10:30:29.937Z,79.40
2022-10-14T10:33:28.060Z,86.90
2022-10-14T10:38:59.874Z,76.35
2022-10-14T10:41:53.344Z,76.25
2022-10-14T10:44:40.305Z,74.32
2022-10-14T10:47:12.918Z,79.00
2022-10-14T10:49:59.242Z,83.28
2022-10-14T10:52:59.733Z,86.40
2022-10-14T10:56:07.633Z,85.35
2022-10-14T11:02:34.079Z,79.43
2022-10-14T11:05:22.084Z,84.18
2022-10-14T11:08:17.426Z,82.65
2022-10-14T11:11:18.360Z,82.87
2022-10-14T11:13:49.454Z,90.63
2022-10-14T11:16:49.266Z,95.07
2022-10-14T11:19:30.333Z,92.63
2022-10-14T11:22:28.601Z,92.15
2022-10-14T11:25:13.953Z,92.15
2022-10-14T11:27:48.330Z,96.82
2022-10-14T11:30:20.224Z,76.85
2022-10-14T11:33:38.891Z,103.75
2022-10-14T11:36:26.338Z,84.70
2022-10-14T11:39:07.679Z,93.70
2022-10-14T11:41:47.063Z,94.00
2022-10-14T11:44:22.898Z,79.72
2022-10-14T11:46:56.439Z,87.25
2022-10-14T11:49:27.955Z,85.60
2022-10-14T11:52:07.679Z,99.10
2022-10-14T11:54:42.560Z,98.55
2022-10-14T11:57:35.353Z,91.32
2022-10-14T12:00:16.618Z,80.57
2022-10-14T12:03:09.783Z,69.82
2022-10-14T12:05:59.386Z,80.28
2022-10-14T12:08:52.015Z,77.40
2022-10-14T12:11:48.104Z,77.68
2022-10-14T12:14:20.424Z,79.93
2022-10-14T12:16:49.289Z,77.57
2022-10-14T12:19:24.881Z,87.90
2022-10-14T12:22:30.265Z,80.50
2022-10-14T12:25:03.411Z,75.20
2022-10-14T12:27:30.725Z,79.10
2022-10-14T12:29:58.962Z,69.90
2022-10-14T12:32:33.005Z,76.05
2022-10-14T12:35:03.967Z,72.15
2022-10-14T12:37:38.039Z,79.03
2022-10-14T12:40:07.715Z,83.22
2022-10-14T12:42:57.745Z,72.78
2022-10-14T12:45:27.602Z,66.38
2022-10-14T12:48:20.645Z,82.07
2022-10-14T12:50:49.709Z,63.72
2022-10-14T12:53:16.378Z,63.92
2022-10-14T12:55:58.327Z,63.15
2022-10-14T12:58:56.085Z,73.60
2022-10-14T13:01:22.926Z,71.00
2022-10-14T13:04:07.312Z,78.97
2022-10-14T13:06:42.438Z,67.22
2022-10-14T13:09:12.189Z,62.83
2022-10-14T13:11:44.667Z,55.03
2022-10-14T13:14:52.958Z,53.13
2022-10-14T13:17:45.766Z,55.60
2022-10-14T13:20:51.472Z,55.33
2022-10-14T13:23:47.874Z,66.03
2022-10-14T13:26:26.327Z,57.88
2022-10-14T13:29:23.503Z,65.43
2022-10-14T13:32:35.838Z,56.75
2022-10-14T13:35:12.876Z,55.33
2022-10-14T13:37:46.329Z,47.85
2022-10-14T13:40:36.537Z,45.17
2022-10-14T13:43:13.830Z,47.20
2022-10-14T13:46:05.755Z,47.55
2022-10-14T13:48:48.949Z,46.72
2022-10-14T13:51:31.919Z,48.55
2022-10-14T13:54:30.884Z,44.10
2022-10-14T13:57:42.722Z,49.03
2022-10-14T14:02:49.034Z,57.92
2022-10-14T14:05:20.434Z,60.78
2022-10-14T14:10:42.464Z,58.15
2022-10-14T14:13:14.051Z,57.97
2022-10-14T14:15:40.884Z,63.63
2022-10-14T14:19:03.943Z,61.92
2022-10-14T14:21:34.135Z,58.50
2022-10-14T14:24:02.110Z,61.28
2022-10-14T14:26:39.224Z,57.97
2022-10-14T14:29:20.357Z,51.22
2022-10-14T14:32:05.124Z,53.05
2022-10-14T14:34:36.739Z,63.03
2022-10-14T14:40:01.592Z,57.50
2022-10-14T14:42:32.932Z,59.45
2022-10-14T14:45:05.573Z,54.60
2022-10-14T14:47:33.111Z,58.17
2022-10-14T14:50:28.638Z,56.47
2022-10-14T14:52:49.375Z,57.08
2022-10-14T14:55:35.601Z,51.33
2022-10-14T14:58:04.663Z,52.38
2022-10-14T15:00:31.619Z,50.10
2022-10-14T15:03:03.362Z,52.67
2022-10-14T15:05:30.074Z,60.42
2022-10-14T15:07:57.101Z,52.20
2022-10-14T15:10:31.442Z,53.50
2022-10-14T15:13:00.830Z,50.38
2022-10-14T15:15:34.103Z,51.42
2022-10-14T15:18:15.914Z,57.45
2022-10-14T15:20:43.665Z,54.85
2022-10-14T15:23:38.388Z,56.92
2022-10-14T15:26:21.748Z,47.80
2022-10-14T15:29:13.591Z,52.05
2022-10-14T15:31:42.697Z,54.05
2022-10-14T15:34:20.458Z,57.08
2022-10-14T15:36:50.081Z,57.45
2022-10-14T15:39:16.876Z,62.20
2022-10-14T15:41:43.950Z,63.95
2022-10-14T15:44:10.868Z,59.10
2022-10-14T15:46:57.562Z,57.38
2022-10-14T15:49:39.850Z,56.65
2022-10-14T15:52:07.044Z,59.33
2022-10-14T15:54:33.824Z,61.38
2022-10-14T15:57:00.649Z,64.20
2022-10-14T15:59:27.567Z,56.70
2022-10-14T16:01:54.475Z,61.63
2022-10-14T16:04:24.823Z,56.88
2022-10-14T16:06:55.442Z,68.93
2022-10-14T16:09:24.781Z,61.15
2022-10-14T16:11:57.246Z,57.53
2022-10-14T16:14:25.538Z,62.78
2022-10-14T16:16:52.566Z,58.75
2022-10-14T16:19:19.479Z,59.83
2022-10-14T16:21:47.801Z,57.45
2022-10-14T16:24:20.528Z,59.35
2022-10-14T16:26:51.291Z,68.55
2022-10-14T16:29:21.569Z,61.33
2022-10-14T16:31:52.400Z,62.65
2022-10-14T16:34:21.243Z,62.38
2022-10-14T16:36:51.671Z,58.75
2022-10-14T16:39:19.870Z,56.33
2022-10-14T16:41:46.639Z,56.40
2022-10-14T16:44:26.228Z,55.40
2022-10-14T16:47:16.025Z,56.00
2022-10-14T16:49:49.345Z,56.95
2022-10-14T16:52:16.363Z,59.92
2022-10-14T16:54:43.167Z,58.90
2022-10-14T16:57:10.878Z,60.80
2022-10-14T16:59:37.721Z,59.67
2022-10-14T17:02:04.902Z,63.30
2022-10-14T17:04:31.713Z,60.88
2022-10-14T17:06:58.899Z,60.53
2022-10-14T17:11:57.370Z,59.95
2022-10-14T17:14:24.249Z,58.60
2022-10-14T17:16:52.367Z,67.78
2022-10-14T17:19:19.975Z,63.83
2022-10-14T17:21:47.211Z,62.17
2022-10-14T17:24:15.938Z,62.10
2022-10-14T17:26:44.502Z,62.40
2022-10-14T17:29:11.321Z,65.18
2022-10-14T17:31:38.881Z,62.08
2022-10-14T17:34:05.699Z,59.65
2022-10-14T17:36:32.445Z,60.53
2022-10-14T17:38:59.699Z,59.30
2022-10-14T17:41:28.398Z,65.03
2022-10-14T17:43:57.138Z,66.25
2022-10-14T17:46:25.640Z,67.70
2022-10-14T17:48:56.149Z,65.65
2022-10-14T17:51:25.361Z,58.13
2022-10-14T17:53:58.444Z,69.45
2022-10-14T17:56:26.745Z,65.90
2022-10-14T17:58:58.464Z,63.70
2022-10-14T18:01:37.434Z,67.10
2022-10-14T18:04:10.585Z,59.05
2022-10-14T18:06:37.484Z,63.60
2022-10-14T18:09:09.587Z,64.93
2022-10-14T18:12:07.813Z,61.42
2022-10-14T18:14:29.767Z,66.88
2022-10-14T18:16:56.704Z,58.22
2022-10-14T18:19:23.433Z,65.38
2022-10-14T18:21:51.537Z,65.75
2022-10-14T18:24:18.477Z,65.45
2022-10-14T18:26:45.219Z,65.47
2022-10-14T18:29:11.889Z,61.92
2022-10-14T18:31:39.616Z,64.68
2022-10-14T18:34:09.210Z,66.30
2022-10-14T18:36:35.984Z,63.72
2022-10-14T18:39:06.802Z,68.63
2022-10-14T18:41:34.134Z,70.43
2022-10-14T18:44:00.895Z,67.70
2022-10-14T18:46:31.833Z,70.15
2022-10-14T18:48:59.718Z,67.80
2022-10-14T18:51:29.349Z,75.95
2022-10-14T18:54:02.643Z,71.10
2022-10-14T18:56:33.174Z,73.75
2022-10-14T19:01:35.051Z,70.63
2022-10-14T19:04:05.497Z,71.25
2022-10-14T19:06:32.968Z,69.47
2022-10-14T19:09:02.533Z,70.38
2022-10-14T19:11:30.646Z,67.95
2022-10-14T19:13:58.982Z,73.82
2022-10-14T19:16:36.063Z,71.05
2022-10-14T19:19:08.326Z,70.95
2022-10-14T19:21:35.083Z,71.25
2022-10-14T19:24:03.044Z,73.65
2022-10-14T19:26:32.179Z,70.22
2022-10-14T19:29:00.438Z,70.35
2022-10-14T19:31:32.951Z,67.38
2022-10-14T19:34:06.057Z,70.65
2022-10-14T19:36:35.373Z,75.35
2022-10-14T19:39:02.668Z,74.43
2022-10-14T19:41:32.090Z,72.82
2022-10-14T19:44:00.182Z,73.35
2022-10-14T19:46:28.538Z,74.10
2022-10-14T19:48:57.455Z,70.85
2022-10-14T19:51:25.086Z,71.72
2022-10-14T19:53:52.053Z,72.38
2022-10-14T19:56:20.571Z,72.63
2022-10-14T19:58:50.586Z,69.80
2022-10-14T20:01:19.116Z,68.05
2022-10-14T20:03:45.821Z,71.60
2022-10-14T20:06:13.741Z,76.07
2022-10-14T20:08:40.674Z,77.32
2022-10-14T20:11:09.744Z,79.63
2022-10-14T20:13:39.750Z,77.53
2022-10-14T20:16:08.626Z,69.00
2022-10-14T20:18:35.823Z,74.30
2022-10-14T20:21:04.576Z,75.88
2022-10-14T20:23:33.926Z,73.00
2022-10-14T20:26:05.972Z,74.97
2022-10-14T20:28:35.950Z,71.90
2022-10-14T20:31:05.576Z,74.38
2022-10-14T20:33:32.946Z,76.05
2022-10-14T20:36:00.949Z,76.95
2022-10-14T20:38:28.250Z,78.57
2022-10-14T20:40:55.369Z,71.05
2022-10-14T20:43:22.097Z,73.25
2022-10-14T20:45:48.830Z,74.18
2022-10-14T20:48:15.864Z,73.80
2022-10-14T20:50:42.611Z,79.40
2022-10-14T20:53:09.401Z,79.68
2022-10-14T20:55:36.155Z,81.05
2022-10-14T20:58:03.045Z,82.25
2022-10-14T21:00:29.859Z,79.30
2022-10-14T21:02:56.737Z,86.03
2022-10-14T21:05:23.447Z,80.95
2022-10-14T21:07:52.536Z,75.57
2022-10-14T21:10:20.113Z,79.05
2022-10-14T21:12:48.794Z,72.25
2022-10-14T21:15:15.902Z,78.13
2022-10-14T21:17:50.172Z,75.47
2022-10-14T21:20:16.953Z,83.65
2022-10-14T21:22:43.696Z,79.95
2022-10-14T21:25:10.623Z,76.22
2022-10-14T21:27:37.261Z,77.93
2022-10-14T21:30:04.298Z,79.72
2022-10-14T21:32:31.136Z,84.50
2022-10-14T21:34:58.487Z,82.55
2022-10-14T21:37:25.193Z,82.00
2022-10-14T21:39:52.191Z,80.10
2022-10-14T21:42:18.917Z,79.97
2022-10-14T21:44:45.690Z,86.22
2022-10-14T21:47:12.698Z,81.82
2022-10-14T21:49:39.571Z,81.93
2022-10-14T21:52:06.318Z,82.72
2022-10-14T21:54:33.077Z,81.47
2022-10-14T21:56:59.708Z,79.47
2022-10-14T21:59:26.433Z,80.25
2022-10-14T22:01:56.499Z,85.90
2022-10-14T22:04:23.235Z,90.72
2022-10-14T22:06:49.903Z,87.70
2022-10-14T22:09:16.639Z,84.85
2022-10-14T22:11:43.387Z,87.72
2022-10-14T22:14:17.236Z,85.70
2022-10-14T22:16:45.675Z,84.55
2022-10-14T22:19:13.577Z,81.25
2022-10-14T22:21:43.204Z,84.57
2022-10-14T22:24:10.027Z,89.10
2022-10-14T22:26:37.997Z,85.55
2022-10-14T22:29:12.094Z,87.75
2022-10-14T22:31:38.940Z,86.30
2022-10-14T22:34:07.709Z,91.03
2022-10-14T22:36:34.983Z,84.25
2022-10-14T22:39:05.873Z,85.53
2022-10-14T22:41:35.785Z,80.82
2022-10-14T22:44:04.372Z,90.32
2022-10-14T22:46:32.812Z,87.93
2022-10-14T22:49:01.643Z,97.80
2022-10-14T22:51:31.206Z,90.68
2022-10-14T22:53:58.697Z,94.05
2022-10-14T22:56:27.756Z,81.97
2022-10-14T22:58:59.362Z,93.85
2022-10-14T23:01:29.817Z,100.68
2022-10-14T23:03:58.345Z,89.93
2022-10-14T23:06:25.737Z,91.85
2022-10-14T23:08:52.466Z,82.55
2022-10-14T23:11:21.325Z,93.63
2022-10-14T23:13:48.560Z,92.85
2022-10-14T23:16:18.083Z,99.28
2022-10-14T23:18:45.853Z,90.47
2022-10-14T23:21:15.375Z,91.05
2022-10-14T23:23:43.223Z,96.45
2022-10-14T23:26:11.505Z,97.90
2022-10-14T23:28:39.103Z,95.35
2022-10-14T23:31:09.843Z,104.63
2022-10-14T23:33:36.551Z,104.97
2022-10-14T23:36:08.757Z,101.82
2022-10-14T23:38:36.101Z,99.15
2022-10-14T23:41:03.787Z,102.72
2022-10-14T23:43:30.916Z,99.50
2022-10-14T23:45:57.626Z,98.38
2022-10-14T23:48:25.043Z,107.32
2022-10-14T23:50:51.760Z,98.03
2022-10-14T23:53:18.623Z,101.60
2022-10-14T23:55:45.633Z,103.18
2022-10-14T23:58:12.667Z,102.35
